Time;durP1;ratioP1;P1;durP2;ratioP2;P2;SDS_P1;SDS_P2;PMS_P1;PMS_P2;Temp;Humidity;BMP_temperature;BMP_pressure;BME280_temperature;BME280_humidity;BME280_pressure;Samples;Min_cycle;Max_cycle;Signal;HPM_P1;HPM_P2
2022/04/23 00:01:44;;;;;;;0.00;0.00;;;9.30;99.90;;;;;;5103204;28;20489;-72
2022/04/23 00:04:13;;;;;;;0.00;0.00;;;9.30;99.90;;;;;;5108542;28;20027;-73
2022/04/23 00:06:40;;;;;;;0.00;0.00;;;9.30;99.90;;;;;;5104837;28;20032;-72
2022/04/23 00:09:06;;;;;;;0.00;0.00;;;9.30;99.90;;;;;;5109922;28;20032;-73
2022/04/23 00:11:35;;;;;;;;;;;9.30;99.90;;;;;;5102533;28;20516;-73
2022/04/23 00:14:00;;;;;;;0.00;0.00;;;9.30;99.90;;;;;;5102008;28;19920;-72
2022/04/23 00:16:27;;;;;;;0.00;0.00;;;9.30;99.90;;;;;;5104819;28;20077;-72
2022/04/23 00:18:53;;;;;;;0.00;0.00;;;9.20;99.90;;;;;;5104298;28;20443;-72
2022/04/23 00:21:18;;;;;;;0.00;0.00;;;9.20;99.90;;;;;;5111497;28;20031;-72
2022/04/23 00:23:48;;;;;;;0.00;0.00;;;9.20;99.90;;;;;;5108000;28;20024;-72
2022/04/23 00:26:14;;;;;;;0.00;0.00;;;9.20;99.90;;;;;;5108431;28;20027;-72
2022/04/23 00:28:40;;;;;;;;;;;9.20;99.90;;;;;;5104788;28;20977;-73
2022/04/23 00:31:06;;;;;;;0.00;0.00;;;9.20;99.90;;;;;;5112520;28;20079;-72
2022/04/23 00:33:38;;;;;;;0.00;0.00;;;9.20;99.90;;;;;;5107989;28;20021;-73
2022/04/23 00:36:05;;;;;;;0.00;0.00;;;9.30;99.90;;;;;;5110536;28;20481;-71
2022/04/23 00:38:33;;;;;;;0.00;0.00;;;9.30;99.90;;;;;;5107518;28;20031;-73
2022/04/23 00:40:59;;;;;;;0.00;0.00;;;9.30;99.90;;;;;;5112363;28;20024;-73
2022/04/23 00:43:30;;;;;;;0.00;0.00;;;9.20;99.90;;;;;;5111088;28;20384;-72
2022/04/23 00:45:57;;;;;;;0.00;0.00;;;9.10;99.90;;;;;;5113768;28;20020;-72
2022/04/23 00:48:24;;;;;;;0.00;0.00;;;9.10;99.90;;;;;;5108132;28;20050;-72
2022/04/23 00:50:58;;;;;;;0.00;0.00;;;9.10;99.90;;;;;;5110272;28;20027;-73
2022/04/23 00:53:24;;;;;;;0.00;0.00;;;9.20;99.90;;;;;;5110794;28;20084;-73
2022/04/23 00:55:52;;;;;;;0.00;0.00;;;9.30;99.90;;;;;;5108273;28;20024;-72
2022/04/23 00:58:19;;;;;;;0.00;0.00;;;9.30;99.90;;;;;;5110853;28;20042;-73
2022/04/23 01:00:47;;;;;;;;;;;9.20;99.90;;;;;;5107428;28;20031;-72
2022/04/23 01:03:14;;;;;;;0.00;0.00;;;9.20;99.90;;;;;;5107521;28;20373;-73
2022/04/23 01:05:46;;;;;;;0.00;0.00;;;9.20;99.90;;;;;;5109373;28;20020;-73
2022/04/23 01:08:18;;;;;;;0.00;0.00;;;9.20;99.90;;;;;;5112734;28;20358;-74
2022/04/23 01:10:45;;;;;;;0.00;0.00;;;9.20;99.90;;;;;;5111747;28;20058;-72
2022/04/23 01:13:14;;;;;;;0.00;0.00;;;9.30;99.90;;;;;;5111171;28;20028;-73
2022/04/23 01:16:05;;;;;;;0.00;0.00;;;9.50;99.90;;;;;;5108075;28;20019;-73
2022/04/23 01:18:32;;;;;;;0.00;0.00;;;9.30;99.90;;;;;;5102757;28;20423;-73
2022/04/23 01:20:59;;;;;;;0.00;0.00;;;9.30;99.90;;;;;;5111626;28;20142;-72
2022/04/23 01:23:25;;;;;;;0.00;0.00;;;9.20;99.90;;;;;;5109453;28;20016;-74
2022/04/23 01:25:53;;;;;;;;;;;9.20;99.90;;;;;;5107072;28;20065;-73
2022/04/23 01:28:23;;;;;;;0.00;0.00;;;9.30;99.90;;;;;;5112493;28;20002;-73
2022/04/23 01:30:53;;;;;;;0.00;0.00;;;9.30;99.90;;;;;;5090096;28;20112;-73
2022/04/23 01:33:19;;;;;;;0.00;0.00;;;9.20;99.90;;;;;;5105551;28;20046;-73
2022/04/23 01:35:46;;;;;;;;;;;9.30;99.90;;;;;;5112911;28;20051;-72
2022/04/23 01:38:13;;;;;;;0.00;0.00;;;9.30;99.90;;;;;;5108747;28;19943;-72
2022/04/23 01:40:40;;;;;;;0.00;0.00;;;9.20;99.90;;;;;;5110453;28;20485;-73
2022/04/23 01:43:06;;;;;;;0.00;0.00;;;9.20;99.90;;;;;;5108193;28;20019;-74
2022/04/23 01:45:31;;;;;;;0.00;0.00;;;9.20;99.90;;;;;;5106644;28;20031;-71
2022/04/23 01:47:57;;;;;;;0.00;0.00;;;9.20;99.90;;;;;;5110021;28;20028;-73
2022/04/23 01:50:23;;;;;;;0.00;0.00;;;9.10;99.90;;;;;;5111987;28;20450;-72
2022/04/23 01:52:49;;;;;;;0.00;0.00;;;9.10;99.90;;;;;;5111918;28;20076;-71
2022/04/23 01:55:15;;;;;;;0.00;0.00;;;9.20;99.90;;;;;;5112605;28;20415;-72
2022/04/23 01:57:40;;;;;;;0.00;0.00;;;9.20;99.90;;;;;;5105805;28;20028;-72
2022/04/23 02:00:08;;;;;;;0.00;0.00;;;9.20;99.90;;;;;;5106643;28;20035;-73
2022/04/23 02:02:36;;;;;;;0.00;0.00;;;9.20;99.90;;;;;;5105742;28;20024;-73
2022/04/23 02:05:03;;;;;;;0.00;0.00;;;9.20;99.90;;;;;;5111643;27;20752;-73
2022/04/23 02:07:29;;;;;;;0.00;0.00;;;9.20;99.90;;;;;;5107805;28;20050;-72
2022/04/23 02:09:55;;;;;;;0.00;0.00;;;9.20;99.90;;;;;;5110629;28;20489;-72
2022/04/23 02:12:20;;;;;;;0.00;0.00;;;9.30;99.90;;;;;;5110223;28;20477;-71
2022/04/23 02:14:48;;;;;;;0.00;0.00;;;9.40;99.90;;;;;;5111995;28;20035;-71
2022/04/23 02:17:14;;;;;;;0.00;0.00;;;9.40;99.90;;;;;;5113276;28;20024;-71
2022/04/23 02:19:40;;;;;;;0.00;0.00;;;9.30;99.90;;;;;;5110849;28;20072;-72
2022/04/23 02:22:05;;;;;;;0.00;0.00;;;9.40;99.90;;;;;;5110687;28;20110;-74
2022/04/23 02:24:31;;;;;;;0.00;0.00;;;9.40;99.90;;;;;;5110851;28;20442;-72
2022/04/23 02:26:57;;;;;;;0.00;0.00;;;9.40;99.90;;;;;;5107218;28;20027;-72
2022/04/23 02:29:23;;;;;;;0.00;0.00;;;9.30;99.90;;;;;;5108769;28;20024;-71
2022/04/23 02:31:48;;;;;;;0.00;0.00;;;9.40;99.90;;;;;;5114327;28;20063;-72
2022/04/23 02:34:14;;;;;;;0.00;0.00;;;9.40;99.90;;;;;;5109141;28;20024;-73
2022/04/23 02:36:40;;;;;;;0.00;0.00;;;9.40;99.90;;;;;;5101575;28;20023;-72
2022/04/23 02:39:08;;;;;;;0.00;0.00;;;9.50;99.90;;;;;;5109977;28;20359;-72
2022/04/23 02:41:34;;;;;;;0.00;0.00;;;9.50;99.90;;;;;;5103969;28;20465;-72
2022/04/23 02:43:59;;;;;;;0.00;0.00;;;9.50;99.90;;;;;;5100384;28;20036;-71
2022/04/23 02:46:26;;;;;;;0.00;0.00;;;9.50;99.90;;;;;;5096750;28;20032;-72
2022/04/23 02:48:51;;;;;;;0.00;0.00;;;9.50;99.90;;;;;;5100357;28;20461;-72
2022/04/23 02:51:17;;;;;;;0.00;0.00;;;9.50;99.90;;;;;;5100490;28;20032;-72
2022/04/23 02:53:43;;;;;;;0.00;0.00;;;9.50;99.90;;;;;;5101277;28;20034;-72
2022/04/23 02:56:13;;;;;;;0.00;0.00;;;9.60;99.90;;;;;;5101038;28;20028;-72
2022/04/23 02:58:40;;;;;;;0.00;0.00;;;9.60;99.90;;;;;;5098561;28;20053;-72
2022/04/23 03:01:10;;;;;;;0.00;0.00;;;9.60;99.90;;;;;;5105152;28;20043;-73
2022/04/23 03:03:40;;;;;;;0.00;0.00;;;9.60;99.90;;;;;;5102175;28;20019;-74
2022/04/23 03:06:07;;;;;;;0.00;0.00;;;9.60;99.90;;;;;;5098012;28;20020;-72
2022/04/23 03:08:37;;;;;;;0.00;0.00;;;9.60;99.90;;;;;;5097249;28;20085;-72
2022/04/23 03:11:05;;;;;;;0.00;0.00;;;9.70;99.90;;;;;;5097650;28;20081;-73
2022/04/23 03:13:31;;;;;;;0.00;0.00;;;9.70;99.90;;;;;;5103802;28;20042;-73
2022/04/23 03:15:57;;;;;;;0.00;0.00;;;9.70;99.90;;;;;;5105300;28;20461;-73
2022/04/23 03:18:23;;;;;;;0.00;0.00;;;9.70;99.90;;;;;;5094243;28;21567;-73
2022/04/23 03:20:48;;;;;;;0.00;0.00;;;9.70;99.90;;;;;;5099648;28;20055;-72
2022/04/23 03:23:14;;;;;;;0.00;0.00;;;9.70;99.90;;;;;;5100153;28;20064;-72
2022/04/23 03:25:42;;;;;;;0.00;0.00;;;9.70;99.90;;;;;;5098610;28;20043;-72
2022/04/23 03:28:08;;;;;;;0.00;0.00;;;9.60;99.90;;;;;;5098867;28;20679;-72
2022/04/23 03:30:34;;;;;;;0.00;0.00;;;9.60;99.90;;;;;;5102902;28;20028;-73
2022/04/23 03:33:00;;;;;;;0.00;0.00;;;9.70;99.90;;;;;;5095385;28;20034;-73
2022/04/23 03:35:26;;;;;;;0.00;0.00;;;9.70;99.90;;;;;;5095435;28;20038;-73
2022/04/23 03:37:52;;;;;;;;;;;9.70;99.90;;;;;;5099534;28;20027;-73
2022/04/23 03:40:18;;;;;;;0.00;0.00;;;9.80;99.90;;;;;;5097025;28;19930;-73
2022/04/23 03:42:45;;;;;;;0.00;0.00;;;9.80;99.90;;;;;;5100566;28;20381;-73
2022/04/23 03:45:11;;;;;;;0.00;0.00;;;9.80;99.90;;;;;;5096236;28;20105;-73
2022/04/23 03:47:36;;;;;;;;;;;9.90;99.90;;;;;;5099232;28;20035;-73
2022/04/23 03:50:09;;;;;;;0.00;0.00;;;9.80;99.90;;;;;;5104267;28;19916;-73
2022/04/23 03:52:35;;;;;;;0.00;0.00;;;9.80;99.90;;;;;;5094260;28;20032;-73
2022/04/23 03:55:01;;;;;;;0.00;0.00;;;9.80;99.90;;;;;;5100532;28;20116;-73
2022/04/23 03:57:27;;;;;;;0.00;0.00;;;9.80;99.90;;;;;;5103832;28;20043;-73
2022/04/23 03:59:53;;;;;;;0.00;0.00;;;9.70;99.90;;;;;;5106903;28;20023;-72
2022/04/23 04:02:18;;;;;;;0.00;0.00;;;9.70;99.90;;;;;;5110261;28;20046;-75
2022/04/23 04:04:45;;;;;;;0.00;0.00;;;9.70;99.90;;;;;;5107607;28;20024;-72
2022/04/23 04:07:17;;;;;;;0.00;0.00;;;9.70;99.90;;;;;;5109403;28;20076;-73
2022/04/23 04:09:43;;;;;;;0.00;0.00;;;9.70;99.90;;;;;;5112173;28;20031;-73
2022/04/23 04:12:11;;;;;;;0.00;0.00;;;9.60;99.90;;;;;;5114533;28;20099;-73
2022/04/23 04:14:36;;;;;;;0.00;0.00;;;9.60;99.90;;;;;;5113536;28;20039;-72
2022/04/23 04:17:06;;;;;;;0.00;0.00;;;9.60;99.90;;;;;;5112548;28;20024;-74
2022/04/23 04:19:32;;;;;;;0.00;0.00;;;9.60;99.90;;;;;;5112624;28;20024;-72
2022/04/23 04:21:58;;;;;;;0.00;0.00;;;9.60;99.90;;;;;;5111982;28;20118;-73
2022/04/23 04:24:24;;;;;;;;;;;9.70;99.90;;;;;;5115884;28;20117;-73
2022/04/23 04:26:52;;;;;;;0.00;0.00;;;9.70;99.90;;;;;;5111390;28;19912;-73
2022/04/23 04:29:18;;;;;;;0.00;0.00;;;9.70;99.90;;;;;;5110901;28;20040;-74
2022/04/23 04:31:50;;;;;;;0.00;0.00;;;9.70;99.90;;;;;;5112198;28;20019;-73
2022/04/23 04:34:18;;;;;;;0.00;0.00;;;9.70;99.90;;;;;;5116298;28;20042;-72
2022/04/23 04:36:45;;;;;;;0.00;0.00;;;9.70;99.90;;;;;;5111742;28;20023;-73
2022/04/23 04:39:11;;;;;;;0.00;0.00;;;9.70;99.90;;;;;;5109921;28;20047;-72
2022/04/23 04:41:37;;;;;;;0.00;0.00;;;9.70;99.90;;;;;;5114984;28;20020;-72
2022/04/23 04:44:06;;;;;;;0.00;0.00;;;9.70;99.90;;;;;;5107905;28;20023;-73
2022/04/23 04:46:36;;;;;;;0.00;0.00;;;9.70;99.90;;;;;;5111826;28;20034;-73
2022/04/23 04:49:06;;;;;;;0.00;0.00;;;9.80;99.90;;;;;;5107436;28;20024;-73
2022/04/23 04:51:35;;;;;;;0.00;0.00;;;9.90;99.90;;;;;;5112788;28;20023;-73
2022/04/23 04:54:01;;;;;;;0.00;0.00;;;9.90;99.90;;;;;;5110669;28;20397;-73
2022/04/23 04:56:27;;;;;;;0.00;0.00;;;9.90;99.90;;;;;;5111089;28;20032;-73
2022/04/23 04:58:53;;;;;;;0.00;0.00;;;9.90;99.90;;;;;;5103737;28;20052;-73
2022/04/23 05:01:18;;;;;;;0.00;0.00;;;9.90;99.90;;;;;;5109507;28;20051;-72
2022/04/23 05:03:44;;;;;;;0.00;0.00;;;9.90;99.90;;;;;;5108306;28;20582;-72
2022/04/23 05:06:10;;;;;;;0.00;0.00;;;9.90;99.90;;;;;;5107638;28;20027;-73
2022/04/23 05:08:37;;;;;;;0.00;0.00;;;9.90;99.90;;;;;;5103245;28;20027;-72
2022/04/23 05:11:03;;;;;;;0.00;0.00;;;9.90;99.90;;;;;;5109748;28;20044;-73
2022/04/23 05:13:29;;;;;;;0.00;0.00;;;9.90;99.90;;;;;;5112404;28;20051;-73
2022/04/23 05:15:56;;;;;;;0.00;0.00;;;10.00;99.90;;;;;;5108200;28;20054;-72
2022/04/23 05:18:24;;;;;;;0.00;0.00;;;10.00;99.90;;;;;;5109448;28;20519;-73
2022/04/23 05:20:50;;;;;;;0.00;0.00;;;10.00;99.90;;;;;;5112353;28;20473;-74
2022/04/23 05:23:16;;;;;;;0.00;0.00;;;10.00;99.90;;;;;;5111286;28;20030;-73
2022/04/23 05:25:41;;;;;;;0.00;0.00;;;10.00;99.90;;;;;;5110017;28;20101;-74
2022/04/23 05:28:07;;;;;;;0.00;0.00;;;10.00;99.90;;;;;;5112555;28;20020;-73
2022/04/23 05:30:37;;;;;;;0.00;0.00;;;10.00;99.90;;;;;;5112222;28;20370;-73
2022/04/23 05:33:04;;;;;;;0.00;0.00;;;10.10;99.90;;;;;;5107874;28;20035;-72
2022/04/23 05:35:29;;;;;;;0.00;0.00;;;10.10;99.90;;;;;;5112357;28;20019;-73
2022/04/23 05:37:55;;;;;;;0.00;0.00;;;10.10;99.90;;;;;;5109887;28;20035;-72
2022/04/23 05:40:21;;;;;;;0.00;0.00;;;10.10;99.90;;;;;;5105614;28;20036;-73
2022/04/23 05:42:46;;;;;;;0.00;0.00;;;10.10;99.90;;;;;;5108027;28;20381;-73
2022/04/23 05:45:12;;;;;;;0.00;0.00;;;10.10;99.90;;;;;;5104533;28;20080;-73
2022/04/23 05:47:41;;;;;;;0.00;0.00;;;10.20;99.90;;;;;;5113617;28;20087;-73
2022/04/23 05:50:10;;;;;;;0.00;0.00;;;10.10;99.90;;;;;;5111464;28;21434;-73
2022/04/23 05:52:37;;;;;;;0.00;0.00;;;10.10;99.90;;;;;;5111987;28;20385;-74
2022/04/23 05:55:04;;;;;;;0.00;0.00;;;10.10;99.90;;;;;;5105569;28;20023;-72
2022/04/23 05:57:33;;;;;;;0.00;0.00;;;10.10;99.90;;;;;;5109424;28;20019;-72
2022/04/23 05:59:59;;;;;;;0.00;0.00;;;10.20;99.90;;;;;;5103109;28;20373;-71
2022/04/23 06:02:28;;;;;;;0.00;0.00;;;10.20;99.90;;;;;;5106861;28;20024;-73
2022/04/23 06:04:54;;;;;;;0.00;0.00;;;10.20;99.90;;;;;;5111134;28;20024;-71
2022/04/23 06:07:19;;;;;;;0.00;0.00;;;10.30;99.90;;;;;;5093048;28;20039;-73
2022/04/23 06:09:45;;;;;;;0.00;0.00;;;10.30;99.90;;;;;;5105271;28;20028;-73
2022/04/23 06:12:11;;;;;;;0.00;0.00;;;10.30;99.90;;;;;;5109072;28;20023;-73
2022/04/23 06:14:37;;;;;;;0.00;0.00;;;10.40;99.90;;;;;;5105860;28;20035;-73
2022/04/23 06:17:11;;;;;;;0.00;0.00;;;10.40;99.90;;;;;;5106589;28;20031;-72
2022/04/23 06:19:41;;;;;;;0.00;0.00;;;10.50;99.90;;;;;;5104634;28;22092;-73
2022/04/23 06:22:07;;;;;;;0.00;0.00;;;10.50;99.90;;;;;;5110788;28;20028;-72
2022/04/23 06:24:33;;;;;;;0.00;0.00;;;10.50;99.90;;;;;;5107465;28;20072;-73
2022/04/23 06:27:02;;;;;;;0.00;0.00;;;10.50;99.90;;;;;;5111305;28;20027;-73
2022/04/23 06:29:28;;;;;;;0.00;0.00;;;10.60;99.90;;;;;;5108622;28;20081;-73
2022/04/23 06:31:53;;;;;;;0.00;0.00;;;10.60;99.90;;;;;;5108262;28;20448;-73
2022/04/23 06:34:20;;;;;;;0.00;0.00;;;10.60;99.90;;;;;;5108462;28;20046;-73
2022/04/23 06:36:46;;;;;;;0.00;0.00;;;10.70;99.90;;;;;;5109889;28;20015;-73
2022/04/23 06:39:11;;;;;;;0.00;0.00;;;10.70;99.90;;;;;;5107918;28;20271;-72
2022/04/23 06:41:38;;;;;;;0.00;0.00;;;10.70;99.90;;;;;;5109695;28;20497;-72
2022/04/23 06:44:03;;;;;;;;;;;10.70;99.90;;;;;;5110707;28;20030;-73
2022/04/23 06:46:29;;;;;;;0.00;0.00;;;10.70;99.90;;;;;;5110919;28;20474;-72
2022/04/23 06:48:55;;;;;;;0.00;0.00;;;10.70;99.90;;;;;;5112586;28;20035;-73
2022/04/23 06:51:21;;;;;;;0.00;0.00;;;10.70;99.90;;;;;;5107270;28;20084;-73
2022/04/23 06:53:47;;;;;;;0.00;0.00;;;10.80;99.90;;;;;;5108804;28;20095;-72
2022/04/23 06:56:13;;;;;;;0.00;0.00;;;10.80;99.90;;;;;;5108434;28;20062;-73
2022/04/23 06:58:39;;;;;;;;;;;10.80;99.90;;;;;;5109536;28;20092;-76
2022/04/23 07:01:07;;;;;;;0.00;0.00;;;10.90;99.90;;;;;;5108939;28;19908;-72
2022/04/23 07:03:33;;;;;;;0.00;0.00;;;10.90;99.90;;;;;;5110488;28;20035;-73
2022/04/23 07:05:59;;;;;;;0.00;0.00;;;10.90;99.90;;;;;;5103786;28;20035;-74
2022/04/23 07:08:25;;;;;;;0.00;0.00;;;11.00;99.90;;;;;;5111373;28;20033;-74
2022/04/23 07:10:51;;;;;;;0.00;0.00;;;11.20;99.90;;;;;;5099410;28;20090;-73
2022/04/23 07:13:16;;;;;;;0.00;0.00;;;11.20;99.90;;;;;;5104626;28;20128;-73
2022/04/23 07:15:44;;;;;;;0.00;0.00;;;11.30;99.90;;;;;;5102156;28;20435;-73
2022/04/23 07:18:10;;;;;;;0.00;0.00;;;11.30;99.90;;;;;;5097109;28;20406;-73
2022/04/23 07:20:36;;;;;;;0.00;0.00;;;11.40;99.90;;;;;;5099737;28;20028;-73
2022/04/23 07:25:45;;;;;;;0.00;0.00;;;11.50;99.90;;;;;;5108665;28;19960;-73
2022/04/23 07:28:11;;;;;;;0.00;0.00;;;11.50;99.90;;;;;;5100362;28;20031;-72
2022/04/23 07:30:37;;;;;;;0.00;0.00;;;11.60;99.90;;;;;;5099870;28;20028;-72
2022/04/23 07:33:04;;;;;;;0.00;0.00;;;11.60;99.90;;;;;;5102313;28;20024;-72
2022/04/23 07:38:21;;;;;;;0.00;0.00;;;11.70;99.90;;;;;;5108230;28;20134;-74
2022/04/23 07:40:51;;;;;;;0.00;0.00;;;11.70;99.90;;;;;;5101344;28;20020;-73
2022/04/23 07:43:17;;;;;;;0.00;0.00;;;11.80;99.90;;;;;;5103289;28;20484;-73
2022/04/23 07:45:44;;;;;;;;;;;11.90;99.90;;;;;;5095285;28;20504;-73
2022/04/23 07:48:11;;;;;;;0.00;0.00;;;12.00;99.90;;;;;;5103999;28;20004;-73
2022/04/23 07:50:39;;;;;;;0.00;0.00;;;12.10;99.90;;;;;;5105520;28;20303;-73
2022/04/23 07:53:05;;;;;;;0.00;0.00;;;12.20;99.90;;;;;;5100335;28;20030;-73
2022/04/23 07:55:38;;;;;;;0.00;0.00;;;12.10;99.90;;;;;;5098556;28;20427;-74
2022/04/23 07:58:05;;;;;;;0.00;0.00;;;12.20;99.90;;;;;;5100883;28;20031;-71
2022/04/23 08:00:31;;;;;;;0.00;0.00;;;12.20;99.90;;;;;;5108329;28;20388;-71
2022/04/23 08:02:58;;;;;;;0.00;0.00;;;12.40;99.90;;;;;;5105284;28;20048;-70
2022/04/23 08:05:24;;;;;;;0.00;0.00;;;12.40;99.90;;;;;;5110218;28;20031;-70
2022/04/23 08:07:50;;;;;;;0.00;0.00;;;12.60;99.90;;;;;;5132154;28;20050;-72
2022/04/23 08:10:16;;;;;;;0.00;0.00;;;12.60;99.90;;;;;;5122600;28;20056;-70
2022/04/23 08:12:42;;;;;;;0.00;0.00;;;12.50;99.90;;;;;;5121165;28;20035;-70
2022/04/23 08:15:08;;;;;;;;;;;12.60;99.90;;;;;;5128887;28;20095;-69
2022/04/23 08:17:34;;;;;;;0.00;0.00;;;12.60;99.90;;;;;;5120195;28;19911;-69
2022/04/23 08:20:00;;;;;;;0.00;0.00;;;12.60;99.90;;;;;;5118406;28;20020;-71
2022/04/23 08:22:26;;;;;;;0.00;0.00;;;12.70;99.90;;;;;;5107002;28;20032;-71
2022/04/23 08:24:52;;;;;;;0.00;0.00;;;12.70;99.90;;;;;;5112444;28;20027;-70
2022/04/23 08:27:17;;;;;;;0.00;0.00;;;12.70;99.90;;;;;;5129800;28;20054;-70
2022/04/23 08:32:27;;;;;;;0.00;0.00;;;12.90;99.90;;;;;;5122842;28;20095;-70
2022/04/23 08:34:53;;;;;;;0.00;0.00;;;13.10;99.90;;;;;;5130976;28;20024;-71
2022/04/23 08:37:19;;;;;;;0.00;0.00;;;13.00;99.90;;;;;;5130306;28;20024;-72
2022/04/23 08:39:47;;;;;;;0.00;0.00;;;12.90;99.90;;;;;;5132903;28;20046;-72
2022/04/23 08:42:16;;;;;;;0.00;0.00;;;12.90;99.90;;;;;;5124833;28;20096;-72
2022/04/23 08:44:42;;;;;;;0.00;0.00;;;12.80;99.90;;;;;;5118281;28;20019;-72
2022/04/23 08:47:10;;;;;;;0.00;0.00;;;12.90;99.90;;;;;;5116449;28;20023;-71
2022/04/23 08:49:40;;;;;;;0.00;0.00;;;13.00;99.90;;;;;;5107988;28;20369;-71
2022/04/23 08:52:16;;;;;;;0.00;0.00;;;13.20;99.90;;;;;;5116112;28;20020;-71
2022/04/23 08:54:43;;;;;;;0.00;0.00;;;13.30;99.90;;;;;;5125584;28;20043;-72
2022/04/23 08:57:09;;;;;;;0.00;0.00;;;13.40;99.90;;;;;;5123973;28;20030;-73
2022/04/23 08:59:35;;;;;;;0.00;0.00;;;13.50;99.90;;;;;;5119958;28;20017;-71
2022/04/23 09:02:01;;;;;;;0.00;0.00;;;13.60;99.90;;;;;;5125392;28;20027;-72
2022/04/23 09:04:30;;;;;;;0.00;0.00;;;13.60;99.90;;;;;;5119442;28;20008;-72
2022/04/23 09:06:56;;;;;;;0.00;0.00;;;13.70;99.90;;;;;;5124592;28;20031;-72
2022/04/23 09:09:23;;;;;;;0.00;0.00;;;13.70;99.90;;;;;;5132275;28;20051;-71
2022/04/23 09:11:50;;;;;;;0.00;0.00;;;13.80;99.90;;;;;;5122002;28;20091;-71
2022/04/23 09:14:33;;;;;;;0.00;0.00;;;13.90;99.90;;;;;;5123764;28;20038;-75
2022/04/23 09:25:31;;;;;;;0.00;0.00;;;13.90;99.90;;;;;;5125594;28;20059;-71
2022/04/23 09:28:12;;;;;;;0.00;0.00;;;14.10;99.90;;;;;;5133239;28;20016;-72
2022/04/23 09:30:38;;;;;;;0.00;0.00;;;14.20;99.90;;;;;;5134733;27;20039;-72
2022/04/23 09:33:03;;;;;;;0.00;0.00;;;14.30;99.90;;;;;;5120313;28;20037;-72
2022/04/23 09:35:29;;;;;;;0.00;0.00;;;14.30;99.90;;;;;;5119205;28;20032;-72
2022/04/23 09:38:13;;;;;;;0.00;0.00;;;14.30;99.90;;;;;;5129042;28;20023;-72
2022/04/23 09:40:42;;;;;;;0.00;0.00;;;14.50;99.90;;;;;;5126540;28;20631;-71
2022/04/23 09:43:09;;;;;;;0.00;0.00;;;14.60;99.90;;;;;;5125387;28;20008;-72
2022/04/23 09:45:43;;;;;;;0.00;0.00;;;14.70;99.90;;;;;;5135448;28;20056;-71
2022/04/23 09:48:11;;;;;;;0.00;0.00;;;14.70;99.90;;;;;;5120141;28;20040;-73
2022/04/23 09:50:39;;;;;;;0.00;0.00;;;14.80;99.90;;;;;;5130688;28;20160;-72
2022/04/23 09:53:12;;;;;;;0.00;0.00;;;14.90;99.90;;;;;;5122083;28;20079;-71
2022/04/23 09:55:38;;;;;;;0.00;0.00;;;14.90;99.90;;;;;;5122378;28;20035;-72
2022/04/23 09:58:06;;;;;;;;;;;15.00;99.90;;;;;;5122343;28;20067;-73
2022/04/23 10:00:36;;;;;;;0.00;0.00;;;15.00;99.90;;;;;;5129759;28;19900;-72
2022/04/23 10:03:06;;;;;;;0.00;0.00;;;15.10;99.90;;;;;;5116618;28;20024;-71
2022/04/23 10:05:40;;;;;;;0.00;0.00;;;15.20;99.90;;;;;;5119429;28;20041;-70
2022/04/23 10:08:19;;;;;;;0.00;0.00;;;15.20;99.90;;;;;;5136048;28;20075;-71
2022/04/23 10:10:54;;;;;;;0.00;0.00;;;15.20;99.90;;;;;;5124438;28;20047;-72
2022/04/23 10:13:23;;;;;;;0.00;0.00;;;15.10;99.90;;;;;;5117459;28;20015;-71
2022/04/23 10:15:51;;;;;;;0.00;0.00;;;15.20;99.90;;;;;;5120427;28;20016;-70
2022/04/23 10:18:17;;;;;;;0.00;0.00;;;15.10;99.90;;;;;;5137281;28;20035;-71
2022/04/23 10:21:01;;;;;;;0.00;0.00;;;15.10;99.90;;;;;;5129105;28;20026;-73
2022/04/23 10:24:05;;;;;;;0.00;0.00;;;15.30;99.90;;;;;;5126727;28;20100;-72
2022/04/23 10:26:59;;;;;;;0.00;0.00;;;15.40;99.90;;;;;;5135047;28;20022;-71
2022/04/23 10:29:27;;;;;;;0.00;0.00;;;15.40;99.90;;;;;;5127536;28;20092;-70
2022/04/23 10:32:20;;;;;;;0.00;0.00;;;15.50;99.90;;;;;;5110260;28;20028;-73
2022/04/23 10:34:49;;;;;;;0.00;0.00;;;15.40;99.90;;;;;;5106675;28;20038;-71
2022/04/23 10:37:24;;;;;;;0.00;0.00;;;15.50;99.90;;;;;;5123986;28;20032;-71
2022/04/23 10:39:52;;;;;;;0.00;0.00;;;15.50;99.90;;;;;;5118896;28;20053;-71
2022/04/23 10:42:24;;;;;;;0.00;0.00;;;15.40;99.90;;;;;;5131505;28;20035;-72
2022/04/23 10:44:51;;;;;;;0.00;0.00;;;15.40;99.90;;;;;;5125405;28;20040;-72
2022/04/23 10:47:28;;;;;;;0.00;0.00;;;15.50;99.90;;;;;;5125435;28;20013;-71
2022/04/23 10:50:13;;;;;;;;;;;15.70;99.90;;;;;;5130659;28;20008;-73
2022/04/23 10:52:39;;;;;;;0.00;0.00;;;15.40;99.90;;;;;;5127567;28;19908;-73
2022/04/23 10:55:05;;;;;;;0.00;0.00;;;15.40;99.90;;;;;;5130089;28;20012;-73
2022/04/23 10:57:30;;;;;;;0.00;0.00;;;15.10;99.90;;;;;;5124740;28;20076;-71
2022/04/23 11:00:12;;;;;;;0.00;0.00;;;15.10;99.90;;;;;;5127558;28;20036;-72
2022/04/23 11:02:39;;;;;;;0.00;0.00;;;15.10;99.90;;;;;;5120837;28;20035;-72
2022/04/23 11:14:07;;;;;;;0.00;0.00;;;15.30;99.90;;;;;;5131533;28;20043;-73
2022/04/23 11:16:33;;;;;;;0.00;0.00;;;15.40;99.90;;;;;;5132829;28;20040;-72
2022/04/23 11:19:02;;;;;;;0.00;0.00;;;15.50;99.90;;;;;;5116974;28;20085;-73
2022/04/23 11:21:32;;;;;;;0.00;0.00;;;15.50;99.90;;;;;;5117955;28;20032;-72
2022/04/23 11:24:00;;;;;;;0.00;0.00;;;15.60;99.90;;;;;;5128637;28;20031;-73
2022/04/23 11:26:46;;;;;;;0.00;0.00;;;15.80;99.90;;;;;;5123994;28;20027;-72
2022/04/23 11:29:13;;;;;;;0.00;0.00;;;15.80;99.90;;;;;;5127611;28;20012;-72
2022/04/23 11:31:39;;;;;;;0.00;0.00;;;16.10;99.90;;;;;;5120604;28;20031;-73
2022/04/23 11:34:04;;;;;;;;;;;16.00;99.90;;;;;;5111314;28;20091;-72
2022/04/23 11:36:35;;;;;;;0.00;0.00;;;15.90;99.90;;;;;;5127230;28;19918;-74
2022/04/23 11:39:09;;;;;;;0.00;0.00;;;16.10;99.90;;;;;;5123228;28;20045;-72
2022/04/23 11:41:38;;;;;;;0.00;0.00;;;16.30;99.90;;;;;;5118387;28;20043;-72
2022/04/23 11:44:14;;;;;;;0.00;0.00;;;16.10;99.90;;;;;;5129332;28;20036;-73
2022/04/23 11:46:48;;;;;;;0.00;0.00;;;16.10;99.90;;;;;;5127419;28;20035;-73
2022/04/23 11:49:29;;;;;;;0.00;0.00;;;16.10;99.90;;;;;;5126196;28;20273;-72
2022/04/23 11:52:06;;;;;;;0.00;0.00;;;16.10;99.90;;;;;;5120305;28;20015;-73
2022/04/23 11:54:41;;;;;;;;;;;16.00;99.90;;;;;;5129296;28;20028;-72
2022/04/23 11:57:12;;;;;;;0.00;0.00;;;16.00;99.90;;;;;;5116778;28;19912;-72
2022/04/23 11:59:46;;;;;;;0.00;0.00;;;16.00;99.90;;;;;;5118445;28;20109;-72
2022/04/23 12:02:31;;;;;;;0.00;0.00;;;16.00;99.90;;;;;;5126567;28;20020;-72
2022/04/23 12:05:01;;;;;;;0.00;0.00;;;16.00;99.90;;;;;;5128131;28;20412;-72
2022/04/23 12:07:31;;;;;;;0.00;0.00;;;16.00;99.90;;;;;;5113182;28;20020;-73
2022/04/23 12:10:04;;;;;;;0.00;0.00;;;16.10;99.90;;;;;;5094017;28;20052;-75
2022/04/23 12:12:32;;;;;;;0.00;0.00;;;15.90;99.90;;;;;;5102097;28;20473;-73
2022/04/23 12:15:08;;;;;;;0.00;0.00;;;16.10;99.90;;;;;;5104495;28;20076;-74
2022/04/23 12:17:47;;;;;;;0.00;0.00;;;16.30;99.90;;;;;;5101705;28;20027;-72
2022/04/23 12:20:19;;;;;;;0.00;0.00;;;16.40;99.90;;;;;;5103182;28;20042;-73
2022/04/23 12:23:01;;;;;;;0.00;0.00;;;16.50;99.90;;;;;;5099854;28;20029;-73
2022/04/23 12:25:29;;;;;;;0.00;0.00;;;16.70;99.90;;;;;;5100336;28;20020;-75
2022/04/23 12:40:43;;;;;;;0.00;0.00;;;16.90;99.90;;;;;;5121052;28;20092;-72
2022/04/23 12:42:05;;;;;;;0.00;0.00;;;17.20;99.90;;;;;;5129133;28;20068;-72
2022/04/23 12:44:40;;;;;;;0.00;0.00;;;17.30;99.90;;;;;;5131330;28;20036;-72
2022/04/23 12:47:08;;;;;;;0.00;0.00;;;17.10;99.90;;;;;;5129192;28;20023;-73
2022/04/23 12:49:44;;;;;;;0.00;0.00;;;17.20;99.90;;;;;;5130183;28;20036;-73
2022/04/23 12:52:22;;;;;;;0.00;0.00;;;17.40;99.90;;;;;;5129950;28;20030;-73
2022/04/23 12:55:24;;;;;;;0.00;0.00;;;17.20;99.90;;;;;;5115255;28;20047;-73
2022/04/23 12:58:02;;;;;;;0.00;0.00;;;17.00;99.90;;;;;;5113482;28;20032;-75
2022/04/23 13:00:31;;;;;;;0.00;0.00;;;16.90;99.90;;;;;;5108490;28;20028;-74
2022/04/23 13:02:59;;;;;;;0.00;0.00;;;16.90;99.90;;;;;;5112285;28;20028;-73
2022/04/23 13:05:28;;;;;;;0.00;0.00;;;16.80;99.90;;;;;;5126370;28;20037;-73
2022/04/23 13:10:39;;;;;;;0.00;0.00;;;17.20;99.90;;;;;;5128292;28;20090;-73
2022/04/23 13:13:09;;;;;;;0.00;0.00;;;17.30;99.90;;;;;;5123603;28;20024;-71
2022/04/23 13:15:35;;;;;;;0.00;0.00;;;17.30;99.90;;;;;;5127376;28;20020;-73
2022/04/23 13:18:02;;;;;;;0.00;0.00;;;17.30;99.90;;;;;;5125301;28;20017;-72
2022/04/23 13:20:34;;;;;;;0.00;0.00;;;17.10;99.90;;;;;;5133234;28;20020;-72
2022/04/23 13:23:00;;;;;;;0.00;0.00;;;17.00;99.90;;;;;;5131413;28;20043;-73
2022/04/23 13:25:27;;;;;;;;;;;17.00;99.90;;;;;;5129297;28;20043;-73
2022/04/23 13:27:53;;;;;;;0.00;0.00;;;17.20;99.90;;;;;;5128832;27;19896;-72
2022/04/23 13:30:18;;;;;;;;;;;17.50;99.90;;;;;;5128274;28;20092;-73
2022/04/23 13:32:46;;;;;;;0.00;0.00;;;17.50;99.90;;;;;;5113180;28;19912;-72
2022/04/23 13:35:14;;;;;;;0.00;0.00;;;17.80;99.90;;;;;;5115059;28;20044;-73
2022/04/23 13:37:41;;;;;;;0.00;0.00;;;17.80;99.30;;;;;;5127460;28;20005;-71
2022/04/23 13:40:08;;;;;;;0.00;0.00;;;17.90;98.90;;;;;;5121710;28;20031;-72
2022/04/23 13:42:36;;;;;;;0.00;0.00;;;18.00;98.70;;;;;;5117661;28;20191;-72